New Gloucester, Maine
Current Conditions -  °F | °C
As of 4:55 AM on Sunday 28 Dec 2014 (Local Time) from KLEW Reporting Station
Overcast Overcast  
Wind Chill: 34°   Ceiling: 7000
Heat Index: 39°   Visibility: 8mi
Dew Point: 36°   Wind: 8mph
Humidity: 87%   Direction: 180°S
Pressure: 29.76"   Gusts: NA
Location:  43.96°N, 70.26°W
Report Text: KLEW 280955Z AUTO 18007KT 8SM OVC070 04/02 A2976 RMK AO1 P0009
Loading
Personal Weather Stations






























Interactive Weather Map New forecast layout! Learn more

10-Day Weather Forecast

Advertisements
Track Severe Weather on mobile